Terminal Aerodrome Forecast
Issued by NWS Atlanta, GA

Home | Current Version | Previous Version | Text Only | Print | Product List | Glossary On
Versions: 1 2 3 4 5 6 7 8 9 10 11 12 13 14 15 16 17
000
FTUS42 KFFC 252320
TAFCSG
TAF
KCSG 252320Z 2600/2624 24010KT P6SM VCSH SCT025 BKN050
      TEMPO 2600/2601 VRB12G22KT 3SM TSRA BKN020CB
     FM260200 23008KT P6SM BKN040
     FM260800 24008KT 3SM BR BKN012 BKN035
     FM261300 28010KT P6SM BKN020
     FM261600 29012G22KT P6SM BKN045=

USA.gov is the U.S. government's official web portal to all federal, state and local government web resources and services.